createdAt,value
2019-01-08T00:00:35.398Z,5.27
2019-01-08T00:05:38.697Z,6.87
2019-01-08T00:10:41.966Z,5.63
2019-01-08T00:15:45.340Z,5.17
2019-01-08T00:20:49.036Z,4.43
2019-01-08T00:25:53.386Z,5.03
2019-01-08T00:30:56.760Z,5.40
2019-01-08T00:36:00.173Z,3.90
2019-01-08T00:41:03.446Z,3.47
2019-01-08T00:46:06.724Z,4.40
2019-01-08T00:51:10.052Z,4.27
2019-01-08T00:56:13.409Z,4.83
2019-01-08T01:01:16.697Z,3.50
2019-01-08T01:06:20.023Z,4.17
2019-01-08T01:11:23.293Z,4.17
2019-01-08T01:16:26.657Z,4.97
2019-01-08T01:21:30.015Z,3.93
2019-01-08T01:26:33.284Z,4.60
2019-01-08T01:31:36.577Z,4.67
2019-01-08T01:36:39.948Z,4.60
2019-01-08T01:41:43.552Z,4.83
2019-01-08T01:46:47.091Z,6.07
2019-01-08T01:51:50.350Z,5.40
2019-01-08T01:56:53.709Z,4.70
2019-01-08T02:01:57.140Z,3.60
2019-01-08T02:07:00.403Z,3.37
2019-01-08T02:12:03.680Z,4.17
2019-01-08T02:17:06.988Z,3.95
2019-01-08T02:22:10.255Z,3.73
2019-01-08T02:27:13.678Z,3.80
2019-01-08T02:32:16.954Z,3.33
2019-01-08T02:37:20.338Z,3.60
2019-01-08T02:42:23.621Z,3.87
2019-01-08T02:47:26.877Z,3.73
2019-01-08T02:52:30.245Z,3.67
2019-01-08T02:57:33.587Z,3.70
2019-01-08T03:02:37.076Z,3.47
2019-01-08T03:07:40.336Z,3.50
2019-01-08T03:12:43.688Z,2.83
2019-01-08T03:17:47.090Z,3.27
2019-01-08T03:22:50.364Z,1.90
2019-01-08T03:27:53.677Z,2.37
2019-01-08T03:32:56.981Z,1.90
2019-01-08T03:38:00.466Z,2.00
2019-01-08T03:43:03.882Z,2.27
2019-01-08T03:48:07.175Z,1.95
2019-01-08T03:53:10.604Z,3.17
2019-01-08T03:58:13.954Z,1.73
2019-01-08T04:03:17.228Z,1.90
2019-01-08T04:08:20.558Z,2.30
2019-01-08T04:13:23.925Z,2.20
2019-01-08T04:18:27.194Z,2.72
2019-01-08T04:23:30.546Z,2.13
2019-01-08T04:28:33.799Z,1.73
2019-01-08T04:33:37.174Z,1.77
2019-01-08T04:38:40.438Z,1.80
2019-01-08T04:43:44.689Z,2.43
2019-01-08T04:48:48.005Z,1.70
2019-01-08T04:53:51.268Z,1.82
2019-01-08T04:58:54.530Z,1.37
2019-01-08T05:03:57.824Z,0.80
2019-01-08T05:09:01.277Z,1.33
2019-01-08T05:14:04.571Z,0.67
2019-01-08T05:19:07.815Z,1.00
2019-01-08T05:24:11.297Z,0.77
2019-01-08T05:29:14.621Z,1.20
2019-01-08T05:34:17.872Z,0.70
2019-01-08T05:39:21.284Z,0.47
2019-01-08T05:44:24.542Z,0.60
2019-01-08T05:49:27.827Z,0.63
2019-01-08T05:54:31.200Z,0.70
2019-01-08T05:59:34.638Z,0.33
2019-01-08T06:04:37.898Z,0.87
2019-01-08T06:09:41.316Z,1.30
2019-01-08T06:14:44.573Z,1.00
2019-01-08T06:19:47.829Z,0.83
2019-01-08T06:24:51.137Z,0.97
2019-01-08T06:29:54.464Z,1.10
2019-01-08T06:34:57.712Z,0.80
2019-01-08T06:40:00.964Z,1.00
2019-01-08T06:45:04.483Z,1.07
2019-01-08T06:50:08.565Z,0.60
2019-01-08T06:55:11.864Z,0.80
2019-01-08T07:00:15.247Z,0.80
2019-01-08T07:05:18.509Z,0.85
2019-01-08T07:10:21.845Z,0.50
2019-01-08T07:15:25.100Z,0.33
2019-01-08T07:20:28.363Z,0.47
2019-01-08T07:25:31.709Z,0.77
2019-01-08T07:30:41.706Z,0.60
2019-01-08T07:35:41.909Z,0.97
2019-01-08T07:40:45.337Z,0.80
2019-01-08T07:45:48.608Z,0.83
2019-01-08T07:50:51.937Z,0.47
2019-01-08T07:55:55.381Z,1.03
2019-01-08T08:00:58.776Z,1.53
2019-01-08T08:06:02.050Z,1.43
2019-01-08T08:11:05.317Z,1.30
2019-01-08T08:16:08.573Z,1.23
2019-01-08T08:21:12.033Z,0.67
2019-01-08T08:26:15.300Z,1.35
2019-01-08T08:31:18.560Z,1.30
2019-01-08T08:36:21.976Z,1.27
2019-01-08T08:41:25.399Z,1.47
2019-01-08T08:46:28.698Z,1.30
2019-01-08T08:51:32.102Z,1.40
2019-01-08T08:56:35.606Z,1.33
2019-01-08T09:01:39.043Z,1.07
2019-01-08T09:06:42.509Z,2.33
2019-01-08T09:11:45.878Z,1.53
2019-01-08T09:16:49.295Z,1.00
2019-01-08T09:21:52.689Z,0.73
2019-01-08T09:26:56.017Z,1.10
2019-01-08T09:31:59.404Z,0.43
2019-01-08T09:37:02.777Z,0.90
2019-01-08T09:42:06.190Z,1.13
2019-01-08T09:47:09.645Z,1.00
2019-01-08T09:52:12.971Z,1.40
2019-01-08T09:57:16.486Z,0.70
2019-01-08T10:02:19.781Z,0.40
2019-01-08T10:07:23.121Z,2.00
2019-01-08T10:12:26.515Z,0.33
2019-01-08T10:17:30.032Z,0.27
2019-01-08T10:22:33.403Z,0.70
2019-01-08T10:27:36.782Z,0.67
2019-01-08T10:32:40.229Z,0.40
2019-01-08T10:37:43.583Z,1.02
2019-01-08T10:42:47.003Z,1.40
2019-01-08T10:47:50.412Z,0.50
2019-01-08T10:52:53.829Z,1.47
2019-01-08T10:57:57.267Z,0.60
2019-01-08T11:03:00.669Z,0.55
2019-01-08T11:08:03.924Z,0.33
2019-01-08T11:13:07.429Z,0.63
2019-01-08T11:18:10.797Z,0.80
2019-01-08T11:23:14.211Z,0.73
2019-01-08T11:28:18.719Z,0.50
2019-01-08T11:33:21.982Z,0.63
2019-01-08T11:38:25.263Z,1.13
2019-01-08T11:43:28.530Z,0.57
2019-01-08T11:48:31.915Z,1.40
2019-01-08T11:53:36.711Z,0.53
2019-01-08T11:58:38.792Z,0.95
2019-01-08T12:09:10.293Z,0.80
2019-01-08T12:14:13.677Z,1.00
2019-01-08T12:19:17.028Z,1.37
2019-01-08T12:24:20.286Z,1.30
2019-01-08T12:29:23.679Z,1.37
2019-01-08T12:34:27.250Z,1.40
2019-01-08T12:39:30.539Z,0.80
2019-01-08T12:44:33.808Z,2.47
2019-01-08T12:49:37.370Z,1.40
2019-01-08T12:54:40.685Z,0.97
2019-01-08T12:59:44.033Z,1.17
2019-01-08T13:04:47.466Z,0.97
2019-01-08T13:09:50.728Z,1.70
2019-01-08T13:14:54.022Z,0.60
2019-01-08T13:19:57.380Z,0.50
2019-01-08T13:25:00.632Z,0.20
2019-01-08T13:30:04.142Z,0.80
2019-01-08T13:35:07.568Z,0.40
2019-01-08T13:40:11.204Z,0.90
2019-01-08T13:45:14.664Z,0.90
2019-01-08T13:50:18.278Z,0.50
2019-01-08T13:55:21.957Z,0.30
2019-01-08T14:00:25.691Z,1.30
2019-01-08T14:05:30.483Z,0.40
2019-01-08T14:10:33.817Z,0.50
2019-01-08T14:15:37.131Z,0.77
2019-01-08T14:20:40.621Z,1.20
2019-01-08T14:25:43.983Z,0.30
2019-01-08T14:30:47.437Z,0.73
2019-01-08T14:35:50.723Z,0.80
2019-01-08T14:40:54.132Z,1.33
2019-01-08T14:45:57.622Z,0.60
2019-01-08T14:51:01.040Z,0.63
2019-01-08T14:56:05.540Z,1.43
2019-01-08T15:01:09.084Z,1.40
2019-01-08T15:06:12.652Z,0.60
2019-01-08T15:11:16.071Z,0.80
2019-01-08T15:16:19.452Z,1.10
2019-01-08T15:21:22.961Z,0.30
2019-01-08T15:26:26.557Z,0.63
2019-01-08T15:31:31.000Z,1.00
2019-01-08T15:36:34.444Z,0.50
2019-01-08T15:41:37.775Z,0.37
2019-01-08T15:46:41.323Z,1.50
2019-01-08T15:51:44.814Z,4.07
2019-01-08T15:56:48.344Z,0.90
2019-01-08T16:01:51.757Z,0.73
2019-01-08T16:06:55.200Z,1.07
2019-01-08T16:11:58.793Z,0.70
2019-01-08T16:17:02.255Z,1.23
2019-01-08T16:22:05.631Z,1.27
2019-01-08T16:27:09.046Z,0.57
2019-01-08T16:32:12.395Z,1.47
2019-01-08T16:37:19.758Z,1.40
2019-01-08T16:42:23.128Z,1.17
2019-01-08T16:47:26.479Z,0.47
2019-01-08T16:52:29.832Z,1.40
2019-01-08T16:57:33.201Z,0.80
2019-01-08T17:02:36.540Z,1.70
2019-01-08T17:07:40.022Z,1.20
2019-01-08T17:12:43.576Z,1.43
2019-01-08T17:17:47.003Z,0.90
2019-01-08T17:22:50.379Z,1.80
2019-01-08T17:27:53.854Z,1.20
2019-01-08T17:32:57.306Z,1.30
2019-01-08T17:38:01.606Z,1.33
2019-01-08T17:43:05.072Z,0.55
2019-01-08T17:48:08.588Z,0.73
2019-01-08T17:53:11.942Z,0.97
2019-01-08T17:58:30.733Z,0.80
2019-01-08T18:03:42.328Z,0.67
2019-01-08T18:08:37.553Z,1.80
2019-01-08T18:13:41.099Z,1.20
2019-01-08T18:18:44.506Z,0.87
2019-01-08T18:23:48.022Z,1.47
2019-01-08T18:28:51.635Z,1.63
2019-01-08T18:33:55.188Z,0.93
2019-01-08T18:38:58.888Z,1.37
2019-01-08T18:44:02.263Z,0.57
2019-01-08T18:49:07.784Z,0.33
2019-01-08T18:54:09.351Z,1.10
2019-01-08T18:59:12.765Z,1.23
2019-01-08T19:04:16.112Z,0.30
2019-01-08T19:09:31.612Z,1.17
2019-01-08T19:14:37.768Z,0.93
2019-01-08T19:19:41.343Z,1.02
2019-01-08T19:24:44.726Z,0.30
2019-01-08T19:29:48.129Z,0.60
2019-01-08T19:34:51.479Z,0.27
2019-01-08T19:39:54.851Z,0.33
2019-01-08T19:44:58.361Z,0.70
2019-01-08T19:50:01.955Z,0.83
2019-01-08T19:55:06.173Z,0.80
2019-01-08T20:00:11.360Z,0.40
2019-01-08T20:05:14.833Z,0.30
2019-01-08T20:10:18.291Z,2.23
2019-01-08T20:15:22.828Z,1.10
2019-01-08T20:20:26.259Z,0.47
2019-01-08T20:25:30.215Z,1.03
2019-01-08T20:30:34.067Z,1.47
2019-01-08T20:35:37.941Z,1.20
2019-01-08T20:40:41.628Z,1.17
2019-01-08T20:45:45.609Z,0.90
2019-01-08T20:50:49.925Z,1.03
2019-01-08T20:55:54.009Z,1.13
2019-01-08T21:00:57.528Z,1.33
2019-01-08T21:06:01.591Z,1.13
2019-01-08T21:11:06.210Z,0.97
2019-01-08T21:16:09.451Z,1.13
2019-01-08T21:21:13.076Z,1.10
2019-01-08T21:26:16.855Z,1.03
2019-01-08T21:31:20.934Z,1.37
2019-01-08T21:36:24.274Z,1.17
2019-01-08T21:41:28.222Z,1.10
2019-01-08T21:46:31.511Z,2.00
2019-01-08T21:51:35.092Z,0.97
2019-01-08T21:56:39.071Z,0.50
2019-01-08T22:01:42.620Z,0.80
2019-01-08T22:06:46.315Z,0.77
2019-01-08T22:11:50.312Z,0.83
2019-01-08T22:16:54.098Z,0.57
2019-01-08T22:21:57.363Z,0.20
2019-01-08T22:27:00.655Z,0.20
2019-01-08T22:32:04.476Z,0.50
2019-01-08T22:37:08.718Z,1.03
2019-01-08T22:42:12.207Z,0.50
2019-01-08T22:47:15.492Z,0.30
2019-01-08T22:52:18.743Z,0.20
2019-01-08T22:57:22.004Z,0.67
2019-01-08T23:02:25.303Z,0.57
2019-01-08T23:07:28.580Z,0.63
2019-01-08T23:12:31.962Z,1.53
2019-01-08T23:17:35.202Z,1.73
2019-01-08T23:22:38.624Z,0.90
2019-01-08T23:27:41.906Z,0.97
2019-01-08T23:32:45.209Z,1.30
2019-01-08T23:37:48.611Z,0.90
2019-01-08T23:42:51.863Z,0.53
2019-01-08T23:47:55.200Z,1.93
2019-01-08T23:53:06.368Z,0.73
2019-01-08T23:58:12.355Z,1.63
